sensor_id;sensor_type;location;lat;lon;timestamp;temperature;humidity
65733;DHT22;70156;-35.366;149.082;2023-05-18T00:00:01;9.40;64.50
65733;DHT22;70156;-35.366;149.082;2023-05-18T00:02:29;9.40;64.40
65733;DHT22;70156;-35.366;149.082;2023-05-18T00:04:56;9.50;64.50
65733;DHT22;70156;-35.366;149.082;2023-05-18T00:07:27;9.50;64.60
65733;DHT22;70156;-35.366;149.082;2023-05-18T00:09:59;9.50;64.60
65733;DHT22;70156;-35.366;149.082;2023-05-18T00:12:26;9.50;64.60
65733;DHT22;70156;-35.366;149.082;2023-05-18T00:14:53;9.50;64.60
65733;DHT22;70156;-35.366;149.082;2023-05-18T00:17:20;9.60;64.60
65733;DHT22;70156;-35.366;149.082;2023-05-18T00:19:48;9.60;65.20
65733;DHT22;70156;-35.366;149.082;2023-05-18T00:22:15;9.60;64.60
65733;DHT22;70156;-35.366;149.082;2023-05-18T00:24:46;9.60;64.60
65733;DHT22;70156;-35.366;149.082;2023-05-18T00:27:33;9.60;64.60
65733;DHT22;70156;-35.366;149.082;2023-05-18T00:30:39;9.60;64.70
65733;DHT22;70156;-35.366;149.082;2023-05-18T00:33:06;9.70;64.80
65733;DHT22;70156;-35.366;149.082;2023-05-18T00:35:33;9.70;64.90
65733;DHT22;70156;-35.366;149.082;2023-05-18T00:38:00;9.70;64.80
65733;DHT22;70156;-35.366;149.082;2023-05-18T00:40:28;9.70;64.70
65733;DHT22;70156;-35.366;149.082;2023-05-18T00:42:55;9.70;64.60
65733;DHT22;70156;-35.366;149.082;2023-05-18T00:45:22;9.80;64.70
65733;DHT22;70156;-35.366;149.082;2023-05-18T00:47:49;9.80;64.80
65733;DHT22;70156;-35.366;149.082;2023-05-18T00:50:17;9.70;64.60
65733;DHT22;70156;-35.366;149.082;2023-05-18T00:52:45;9.80;64.60
65733;DHT22;70156;-35.366;149.082;2023-05-18T00:55:13;9.80;64.60
65733;DHT22;70156;-35.366;149.082;2023-05-18T00:57:40;9.90;64.60
65733;DHT22;70156;-35.366;149.082;2023-05-18T01:00:13;9.90;64.50
65733;DHT22;70156;-35.366;149.082;2023-05-18T01:03:00;9.90;64.60
65733;DHT22;70156;-35.366;149.082;2023-05-18T01:06:07;9.90;64.60
65733;DHT22;70156;-35.366;149.082;2023-05-18T01:08:36;9.90;64.50
65733;DHT22;70156;-35.366;149.082;2023-05-18T01:16:28;10.10;64.20
65733;DHT22;70156;-35.366;149.082;2023-05-18T01:24:53;10.20;64.00
65733;DHT22;70156;-35.366;149.082;2023-05-18T01:27:24;10.20;63.80
65733;DHT22;70156;-35.366;149.082;2023-05-18T01:29:53;10.30;63.70
65733;DHT22;70156;-35.366;149.082;2023-05-18T01:32:21;10.30;63.90
65733;DHT22;70156;-35.366;149.082;2023-05-18T01:34:49;10.40;63.60
65733;DHT22;70156;-35.366;149.082;2023-05-18T01:37:16;10.50;63.80
65733;DHT22;70156;-35.366;149.082;2023-05-18T01:39:43;10.50;63.50
65733;DHT22;70156;-35.366;149.082;2023-05-18T01:42:18;10.60;63.40
65733;DHT22;70156;-35.366;149.082;2023-05-18T01:44:52;10.60;63.10
65733;DHT22;70156;-35.366;149.082;2023-05-18T01:47:19;10.60;63.00
65733;DHT22;70156;-35.366;149.082;2023-05-18T01:50:12;10.70;62.90
65733;DHT22;70156;-35.366;149.082;2023-05-18T01:55:16;10.80;62.70
65733;DHT22;70156;-35.366;149.082;2023-05-18T01:57:45;10.80;62.60
65733;DHT22;70156;-35.366;149.082;2023-05-18T02:00:15;10.80;62.50
65733;DHT22;70156;-35.366;149.082;2023-05-18T02:02:43;10.80;62.30
65733;DHT22;70156;-35.366;149.082;2023-05-18T02:05:10;10.80;62.30
65733;DHT22;70156;-35.366;149.082;2023-05-18T02:07:38;10.80;62.10
65733;DHT22;70156;-35.366;149.082;2023-05-18T02:10:25;10.80;61.70
65733;DHT22;70156;-35.366;149.082;2023-05-18T02:13:26;10.80;61.60
65733;DHT22;70156;-35.366;149.082;2023-05-18T02:15:53;10.90;61.40
65733;DHT22;70156;-35.366;149.082;2023-05-18T02:18:20;10.90;61.40
65733;DHT22;70156;-35.366;149.082;2023-05-18T02:21:07;10.90;61.50
65733;DHT22;70156;-35.366;149.082;2023-05-18T02:24:13;10.90;61.60
65733;DHT22;70156;-35.366;149.082;2023-05-18T02:26:40;10.90;61.60
65733;DHT22;70156;-35.366;149.082;2023-05-18T02:29:07;10.90;61.80
65733;DHT22;70156;-35.366;149.082;2023-05-18T02:31:59;11.00;61.70
65733;DHT22;70156;-35.366;149.082;2023-05-18T02:34:52;11.00;61.50
65733;DHT22;70156;-35.366;149.082;2023-05-18T02:37:19;11.00;61.50
65733;DHT22;70156;-35.366;149.082;2023-05-18T02:39:48;11.00;61.10
65733;DHT22;70156;-35.366;149.082;2023-05-18T02:42:15;11.10;60.60
65733;DHT22;70156;-35.366;149.082;2023-05-18T02:44:42;11.10;60.50
65733;DHT22;70156;-35.366;149.082;2023-05-18T02:47:09;11.10;60.50
65733;DHT22;70156;-35.366;149.082;2023-05-18T02:49:36;11.10;60.30
65733;DHT22;70156;-35.366;149.082;2023-05-18T02:52:03;11.10;60.20
65733;DHT22;70156;-35.366;149.082;2023-05-18T02:54:30;11.20;60.10
65733;DHT22;70156;-35.366;149.082;2023-05-18T02:56:57;11.20;59.90
65733;DHT22;70156;-35.366;149.082;2023-05-18T02:59:37;11.20;59.80
65733;DHT22;70156;-35.366;149.082;2023-05-18T03:02:04;11.30;59.50
65733;DHT22;70156;-35.366;149.082;2023-05-18T03:04:31;11.30;59.40
65733;DHT22;70156;-35.366;149.082;2023-05-18T03:07:19;11.30;59.20
65733;DHT22;70156;-35.366;149.082;2023-05-18T03:10:44;11.30;58.50
65733;DHT22;70156;-35.366;149.082;2023-05-18T03:13:50;11.30;58.50
65733;DHT22;70156;-35.366;149.082;2023-05-18T03:16:17;11.30;58.50
65733;DHT22;70156;-35.366;149.082;2023-05-18T03:18:45;11.30;58.50
65733;DHT22;70156;-35.366;149.082;2023-05-18T03:21:12;11.40;58.60
65733;DHT22;70156;-35.366;149.082;2023-05-18T03:23:39;11.40;58.80
65733;DHT22;70156;-35.366;149.082;2023-05-18T03:26:09;11.40;59.00
65733;DHT22;70156;-35.366;149.082;2023-05-18T03:28:38;11.40;59.30
65733;DHT22;70156;-35.366;149.082;2023-05-18T03:31:05;11.40;59.50
65733;DHT22;70156;-35.366;149.082;2023-05-18T03:33:32;11.40;60.10
65733;DHT22;70156;-35.366;149.082;2023-05-18T03:36:22;11.40;60.60
65733;DHT22;70156;-35.366;149.082;2023-05-18T03:39:20;11.40;60.60
65733;DHT22;70156;-35.366;149.082;2023-05-18T03:41:52;11.40;60.60
65733;DHT22;70156;-35.366;149.082;2023-05-18T03:44:20;11.40;60.60
65733;DHT22;70156;-35.366;149.082;2023-05-18T03:46:47;11.50;60.30
65733;DHT22;70156;-35.366;149.082;2023-05-18T03:49:14;11.50;59.90
65733;DHT22;70156;-35.366;149.082;2023-05-18T03:51:42;11.50;59.80
65733;DHT22;70156;-35.366;149.082;2023-05-18T03:54:09;11.50;59.70
65733;DHT22;70156;-35.366;149.082;2023-05-18T03:56:36;11.50;59.60
65733;DHT22;70156;-35.366;149.082;2023-05-18T03:59:03;11.60;59.30
65733;DHT22;70156;-35.366;149.082;2023-05-18T04:01:33;11.60;59.30
65733;DHT22;70156;-35.366;149.082;2023-05-18T04:04:00;11.60;59.30
65733;DHT22;70156;-35.366;149.082;2023-05-18T04:06:27;11.60;59.50
65733;DHT22;70156;-35.366;149.082;2023-05-18T04:08:58;11.60;60.20
65733;DHT22;70156;-35.366;149.082;2023-05-18T04:11:30;11.60;59.50
65733;DHT22;70156;-35.366;149.082;2023-05-18T04:13:57;11.70;59.30
65733;DHT22;70156;-35.366;149.082;2023-05-18T04:16:26;11.70;59.40
65733;DHT22;70156;-35.366;149.082;2023-05-18T04:19:13;11.70;59.60
65733;DHT22;70156;-35.366;149.082;2023-05-18T04:22:08;11.70;59.90
65733;DHT22;70156;-35.366;149.082;2023-05-18T04:24:35;11.80;60.10
65733;DHT22;70156;-35.366;149.082;2023-05-18T04:27:07;11.80;60.10
65733;DHT22;70156;-35.366;149.082;2023-05-18T04:29:54;11.90;60.20
65733;DHT22;70156;-35.366;149.082;2023-05-18T04:33:01;11.90;60.20
65733;DHT22;70156;-35.366;149.082;2023-05-18T04:35:29;11.90;60.20
65733;DHT22;70156;-35.366;149.082;2023-05-18T04:37:57;12.00;59.60
65733;DHT22;70156;-35.366;149.082;2023-05-18T04:40:24;12.00;59.20
65733;DHT22;70156;-35.366;149.082;2023-05-18T04:42:51;12.00;59.30
65733;DHT22;70156;-35.366;149.082;2023-05-18T04:45:18;12.10;59.60
65733;DHT22;70156;-35.366;149.082;2023-05-18T04:47:49;12.10;59.20
65733;DHT22;70156;-35.366;149.082;2023-05-18T04:50:20;12.10;58.80
65733;DHT22;70156;-35.366;149.082;2023-05-18T04:52:49;12.20;58.40
65733;DHT22;70156;-35.366;149.082;2023-05-18T04:55:18;12.20;58.40
65733;DHT22;70156;-35.366;149.082;2023-05-18T04:57:51;12.20;58.90
65733;DHT22;70156;-35.366;149.082;2023-05-18T05:00:26;12.30;59.20
65733;DHT22;70156;-35.366;149.082;2023-05-18T05:02:55;12.20;59.60
65733;DHT22;70156;-35.366;149.082;2023-05-18T05:05:23;12.30;60.20
65733;DHT22;70156;-35.366;149.082;2023-05-18T05:07:54;12.30;60.20
65733;DHT22;70156;-35.366;149.082;2023-05-18T05:10:24;12.30;60.20
65733;DHT22;70156;-35.366;149.082;2023-05-18T05:12:51;12.20;60.50
65733;DHT22;70156;-35.366;149.082;2023-05-18T05:15:18;12.30;61.60
65733;DHT22;70156;-35.366;149.082;2023-05-18T05:17:47;12.30;59.90
65733;DHT22;70156;-35.366;149.082;2023-05-18T05:20:14;12.30;59.50
65733;DHT22;70156;-35.366;149.082;2023-05-18T05:22:41;12.40;59.30
65733;DHT22;70156;-35.366;149.082;2023-05-18T05:25:08;12.40;59.00
65733;DHT22;70156;-35.366;149.082;2023-05-18T05:27:35;12.40;59.00
65733;DHT22;70156;-35.366;149.082;2023-05-18T05:30:03;12.50;58.90
65733;DHT22;70156;-35.366;149.082;2023-05-18T05:32:30;12.50;58.90
65733;DHT22;70156;-35.366;149.082;2023-05-18T05:34:57;12.50;59.20
65733;DHT22;70156;-35.366;149.082;2023-05-18T05:37:24;12.50;59.50
65733;DHT22;70156;-35.366;149.082;2023-05-18T05:39:51;12.50;59.60
65733;DHT22;70156;-35.366;149.082;2023-05-18T05:42:18;12.40;60.30
65733;DHT22;70156;-35.366;149.082;2023-05-18T05:44:45;12.40;60.30
65733;DHT22;70156;-35.366;149.082;2023-05-18T05:47:12;12.40;60.50
65733;DHT22;70156;-35.366;149.082;2023-05-18T05:49:39;12.30;60.20
65733;DHT22;70156;-35.366;149.082;2023-05-18T05:52:06;12.30;60.10
65733;DHT22;70156;-35.366;149.082;2023-05-18T05:54:36;12.30;60.00
65733;DHT22;70156;-35.366;149.082;2023-05-18T05:57:03;12.30;59.70
65733;DHT22;70156;-35.366;149.082;2023-05-18T05:59:30;12.30;60.00
65733;DHT22;70156;-35.366;149.082;2023-05-18T06:01:57;12.30;60.30
65733;DHT22;70156;-35.366;149.082;2023-05-18T06:04:24;12.20;60.40
65733;DHT22;70156;-35.366;149.082;2023-05-18T06:06:51;12.20;60.60
65733;DHT22;70156;-35.366;149.082;2023-05-18T06:09:19;12.20;60.60
65733;DHT22;70156;-35.366;149.082;2023-05-18T06:11:46;12.20;60.60
65733;DHT22;70156;-35.366;149.082;2023-05-18T06:14:13;12.20;60.60
65733;DHT22;70156;-35.366;149.082;2023-05-18T06:16:40;12.20;60.60
65733;DHT22;70156;-35.366;149.082;2023-05-18T06:19:07;12.20;60.60
65733;DHT22;70156;-35.366;149.082;2023-05-18T06:21:34;12.20;60.70
65733;DHT22;70156;-35.366;149.082;2023-05-18T06:24:01;12.20;60.70
65733;DHT22;70156;-35.366;149.082;2023-05-18T06:26:30;12.20;60.80
65733;DHT22;70156;-35.366;149.082;2023-05-18T06:28:57;12.20;60.60
65733;DHT22;70156;-35.366;149.082;2023-05-18T06:31:24;12.20;60.70
65733;DHT22;70156;-35.366;149.082;2023-05-18T06:33:51;12.10;60.90
65733;DHT22;70156;-35.366;149.082;2023-05-18T06:36:18;12.20;60.80
65733;DHT22;70156;-35.366;149.082;2023-05-18T06:38:45;12.20;60.70
65733;DHT22;70156;-35.366;149.082;2023-05-18T06:41:12;12.20;60.60
65733;DHT22;70156;-35.366;149.082;2023-05-18T06:43:39;12.10;60.60
65733;DHT22;70156;-35.366;149.082;2023-05-18T06:46:06;12.10;60.60
65733;DHT22;70156;-35.366;149.082;2023-05-18T06:48:34;12.10;60.60
65733;DHT22;70156;-35.366;149.082;2023-05-18T06:51:02;12.10;60.70
65733;DHT22;70156;-35.366;149.082;2023-05-18T06:53:30;12.10;60.80
65733;DHT22;70156;-35.366;149.082;2023-05-18T06:56:11;12.10;61.00
65733;DHT22;70156;-35.366;149.082;2023-05-18T06:58:40;12.10;61.10
65733;DHT22;70156;-35.366;149.082;2023-05-18T07:01:07;12.10;61.30
65733;DHT22;70156;-35.366;149.082;2023-05-18T07:03:34;12.00;61.40
65733;DHT22;70156;-35.366;149.082;2023-05-18T07:06:03;12.00;61.40
65733;DHT22;70156;-35.366;149.082;2023-05-18T07:08:31;12.10;61.50
65733;DHT22;70156;-35.366;149.082;2023-05-18T07:10:58;12.00;61.60
65733;DHT22;70156;-35.366;149.082;2023-05-18T07:13:27;12.00;61.70
65733;DHT22;70156;-35.366;149.082;2023-05-18T07:15:54;12.10;61.90
65733;DHT22;70156;-35.366;149.082;2023-05-18T07:18:21;12.00;61.70
65733;DHT22;70156;-35.366;149.082;2023-05-18T07:20:48;12.00;61.90
65733;DHT22;70156;-35.366;149.082;2023-05-18T07:23:15;12.00;61.80
65733;DHT22;70156;-35.366;149.082;2023-05-18T07:26:02;12.00;62.10
65733;DHT22;70156;-35.366;149.082;2023-05-18T07:28:54;12.00;61.90
65733;DHT22;70156;-35.366;149.082;2023-05-18T07:32:01;12.00;62.00
65733;DHT22;70156;-35.366;149.082;2023-05-18T07:34:28;12.00;62.00
65733;DHT22;70156;-35.366;149.082;2023-05-18T07:36:55;12.00;61.90
65733;DHT22;70156;-35.366;149.082;2023-05-18T07:39:23;12.00;62.00
65733;DHT22;70156;-35.366;149.082;2023-05-18T07:41:55;12.00;61.90
65733;DHT22;70156;-35.366;149.082;2023-05-18T07:44:41;11.90;61.80
65733;DHT22;70156;-35.366;149.082;2023-05-18T07:47:48;11.90;61.70
65733;DHT22;70156;-35.366;149.082;2023-05-18T07:50:15;11.90;61.50
65733;DHT22;70156;-35.366;149.082;2023-05-18T07:52:42;11.90;61.40
65733;DHT22;70156;-35.366;149.082;2023-05-18T07:55:09;11.90;61.20
65733;DHT22;70156;-35.366;149.082;2023-05-18T07:57:36;11.90;61.30
65733;DHT22;70156;-35.366;149.082;2023-05-18T08:00:04;11.90;61.10
65733;DHT22;70156;-35.366;149.082;2023-05-18T08:02:35;11.90;61.00
65733;DHT22;70156;-35.366;149.082;2023-05-18T08:05:03;11.80;60.90
65733;DHT22;70156;-35.366;149.082;2023-05-18T08:07:31;11.90;60.80
65733;DHT22;70156;-35.366;149.082;2023-05-18T08:09:58;11.80;60.80
65733;DHT22;70156;-35.366;149.082;2023-05-18T08:12:25;11.80;60.70
65733;DHT22;70156;-35.366;149.082;2023-05-18T08:14:52;11.80;60.60
65733;DHT22;70156;-35.366;149.082;2023-05-18T08:17:19;11.80;60.60
65733;DHT22;70156;-35.366;149.082;2023-05-18T08:20:06;11.80;60.40
65733;DHT22;70156;-35.366;149.082;2023-05-18T08:23:13;11.80;60.40
65733;DHT22;70156;-35.366;149.082;2023-05-18T08:25:59;11.80;61.00
65733;DHT22;70156;-35.366;149.082;2023-05-18T08:28:40;11.80;60.20
65733;DHT22;70156;-35.366;149.082;2023-05-18T08:31:07;11.80;60.10
65733;DHT22;70156;-35.366;149.082;2023-05-18T08:33:34;11.70;60.00
65733;DHT22;70156;-35.366;149.082;2023-05-18T08:36:01;11.70;59.90
65733;DHT22;70156;-35.366;149.082;2023-05-18T08:38:28;11.70;59.90
65733;DHT22;70156;-35.366;149.082;2023-05-18T08:43:37;11.70;59.80
65733;DHT22;70156;-35.366;149.082;2023-05-18T08:46:16;11.60;59.60
65733;DHT22;70156;-35.366;149.082;2023-05-18T08:48:46;11.70;59.70
65733;DHT22;70156;-35.366;149.082;2023-05-18T08:51:19;11.60;59.60
65733;DHT22;70156;-35.366;149.082;2023-05-18T08:53:51;11.60;59.50
65733;DHT22;70156;-35.366;149.082;2023-05-18T08:56:22;11.60;59.50
65733;DHT22;70156;-35.366;149.082;2023-05-18T08:58:53;11.60;59.40
65733;DHT22;70156;-35.366;149.082;2023-05-18T09:01:21;11.60;59.40
65733;DHT22;70156;-35.366;149.082;2023-05-18T09:04:13;11.60;59.20
65733;DHT22;70156;-35.366;149.082;2023-05-18T09:07:39;11.60;59.20
65733;DHT22;70156;-35.366;149.082;2023-05-18T09:11:05;11.60;59.10
65733;DHT22;70156;-35.366;149.082;2023-05-18T09:14:07;11.50;58.90
65733;DHT22;70156;-35.366;149.082;2023-05-18T09:17:20;11.50;58.90
65733;DHT22;70156;-35.366;149.082;2023-05-18T09:19:49;11.50;58.80
65733;DHT22;70156;-35.366;149.082;2023-05-18T09:22:39;11.50;58.70
65733;DHT22;70156;-35.366;149.082;2023-05-18T09:25:20;11.40;58.60
65733;DHT22;70156;-35.366;149.082;2023-05-18T09:28:37;11.40;58.60
65733;DHT22;70156;-35.366;149.082;2023-05-18T09:31:24;11.40;58.60
65733;DHT22;70156;-35.366;149.082;2023-05-18T09:35:05;11.40;58.50
65733;DHT22;70156;-35.366;149.082;2023-05-18T09:38:03;11.40;58.30
65733;DHT22;70156;-35.366;149.082;2023-05-18T09:40:45;11.40;58.40
65733;DHT22;70156;-35.366;149.082;2023-05-18T09:43:12;11.30;58.40
65733;DHT22;70156;-35.366;149.082;2023-05-18T09:45:46;11.30;58.40
65733;DHT22;70156;-35.366;149.082;2023-05-18T09:48:15;11.30;58.50
65733;DHT22;70156;-35.366;149.082;2023-05-18T09:50:43;11.30;58.50
65733;DHT22;70156;-35.366;149.082;2023-05-18T09:53:13;11.30;58.60
65733;DHT22;70156;-35.366;149.082;2023-05-18T09:56:04;11.30;58.60
65733;DHT22;70156;-35.366;149.082;2023-05-18T09:58:41;11.30;58.60
65733;DHT22;70156;-35.366;149.082;2023-05-18T10:01:23;11.30;58.70
65733;DHT22;70156;-35.366;149.082;2023-05-18T10:03:50;11.30;58.80
65733;DHT22;70156;-35.366;149.082;2023-05-18T10:06:18;11.20;58.60
65733;DHT22;70156;-35.366;149.082;2023-05-18T10:08:51;11.20;58.60
65733;DHT22;70156;-35.366;149.082;2023-05-18T10:11:20;11.20;58.40
65733;DHT22;70156;-35.366;149.082;2023-05-18T10:14:05;11.20;58.50
65733;DHT22;70156;-35.366;149.082;2023-05-18T10:16:32;11.20;58.30
65733;DHT22;70156;-35.366;149.082;2023-05-18T10:19:00;11.20;58.50
65733;DHT22;70156;-35.366;149.082;2023-05-18T10:21:29;11.20;58.40
65733;DHT22;70156;-35.366;149.082;2023-05-18T10:24:19;11.20;58.40
65733;DHT22;70156;-35.366;149.082;2023-05-18T10:27:45;11.20;58.10
65733;DHT22;70156;-35.366;149.082;2023-05-18T10:30:53;11.10;57.90
65733;DHT22;70156;-35.366;149.082;2023-05-18T10:33:32;11.10;58.00
65733;DHT22;70156;-35.366;149.082;2023-05-18T10:36:03;11.10;57.90
65733;DHT22;70156;-35.366;149.082;2023-05-18T10:38:37;11.10;57.80
65733;DHT22;70156;-35.366;149.082;2023-05-18T10:41:29;11.10;57.70
65733;DHT22;70156;-35.366;149.082;2023-05-18T10:43:58;11.00;57.60
65733;DHT22;70156;-35.366;149.082;2023-05-18T10:46:29;11.00;57.60
65733;DHT22;70156;-35.366;149.082;2023-05-18T10:49:03;11.00;57.60
65733;DHT22;70156;-35.366;149.082;2023-05-18T10:51:44;11.00;57.50
65733;DHT22;70156;-35.366;149.082;2023-05-18T10:54:21;11.00;57.70
65733;DHT22;70156;-35.366;149.082;2023-05-18T10:56:52;11.00;57.60
65733;DHT22;70156;-35.366;149.082;2023-05-18T10:59:23;10.90;57.60
65733;DHT22;70156;-35.366;149.082;2023-05-18T11:01:52;10.90;57.70
65733;DHT22;70156;-35.366;149.082;2023-05-18T11:04:46;10.90;57.70
65733;DHT22;70156;-35.366;149.082;2023-05-18T11:08:02;10.90;57.60
65733;DHT22;70156;-35.366;149.082;2023-05-18T11:10:39;10.90;57.70
65733;DHT22;70156;-35.366;149.082;2023-05-18T11:13:07;10.90;57.70
65733;DHT22;70156;-35.366;149.082;2023-05-18T11:18:46;10.80;57.70
65733;DHT22;70156;-35.366;149.082;2023-05-18T11:26:52;10.80;57.90
65733;DHT22;70156;-35.366;149.082;2023-05-18T11:29:24;10.80;58.00
65733;DHT22;70156;-35.366;149.082;2023-05-18T11:32:51;10.80;58.10
65733;DHT22;70156;-35.366;149.082;2023-05-18T11:36:11;10.80;58.20
65733;DHT22;70156;-35.366;149.082;2023-05-18T11:41:31;10.70;58.40
65733;DHT22;70156;-35.366;149.082;2023-05-18T11:44:15;10.70;58.40
65733;DHT22;70156;-35.366;149.082;2023-05-18T11:47:01;10.70;58.40
65733;DHT22;70156;-35.366;149.082;2023-05-18T11:49:31;10.70;59.10
65733;DHT22;70156;-35.366;149.082;2023-05-18T11:52:24;10.70;58.60
65733;DHT22;70156;-35.366;149.082;2023-05-18T11:55:58;10.70;58.70
65733;DHT22;70156;-35.366;149.082;2023-05-18T11:59:33;10.70;58.70
65733;DHT22;70156;-35.366;149.082;2023-05-18T12:02:42;10.70;58.80
65733;DHT22;70156;-35.366;149.082;2023-05-18T12:05:23;10.70;58.90
65733;DHT22;70156;-35.366;149.082;2023-05-18T12:07:53;10.60;58.80
65733;DHT22;70156;-35.366;149.082;2023-05-18T12:10:40;10.60;58.80
65733;DHT22;70156;-35.366;149.082;2023-05-18T12:13:56;10.60;59.00
65733;DHT22;70156;-35.366;149.082;2023-05-18T12:17:22;10.50;58.90
65733;DHT22;70156;-35.366;149.082;2023-05-18T12:20:28;10.60;59.10
65733;DHT22;70156;-35.366;149.082;2023-05-18T12:23:15;10.60;59.10
65733;DHT22;70156;-35.366;149.082;2023-05-18T12:26:22;10.50;59.10
65733;DHT22;70156;-35.366;149.082;2023-05-18T12:29:01;10.50;59.10
65733;DHT22;70156;-35.366;149.082;2023-05-18T12:31:30;10.50;59.10
65733;DHT22;70156;-35.366;149.082;2023-05-18T12:34:02;10.50;59.10
65733;DHT22;70156;-35.366;149.082;2023-05-18T12:36:32;10.50;59.20
65733;DHT22;70156;-35.366;149.082;2023-05-18T12:39:13;10.50;59.20
65733;DHT22;70156;-35.366;149.082;2023-05-18T12:41:40;10.50;59.30
65733;DHT22;70156;-35.366;149.082;2023-05-18T12:44:09;10.40;59.20
65733;DHT22;70156;-35.366;149.082;2023-05-18T12:46:43;10.40;59.30
65733;DHT22;70156;-35.366;149.082;2023-05-18T12:49:23;10.40;59.30
65733;DHT22;70156;-35.366;149.082;2023-05-18T12:51:57;10.40;59.40
65733;DHT22;70156;-35.366;149.082;2023-05-18T12:54:28;10.40;59.40
65733;DHT22;70156;-35.366;149.082;2023-05-18T12:56:55;10.40;59.40
65733;DHT22;70156;-35.366;149.082;2023-05-18T12:59:28;10.40;59.60
65733;DHT22;70156;-35.366;149.082;2023-05-18T13:01:56;10.30;59.40
65733;DHT22;70156;-35.366;149.082;2023-05-18T13:04:32;10.30;59.40
65733;DHT22;70156;-35.366;149.082;2023-05-18T13:07:02;10.30;59.40
65733;DHT22;70156;-35.366;149.082;2023-05-18T13:09:29;10.30;59.50
65733;DHT22;70156;-35.366;149.082;2023-05-18T13:11:59;10.30;59.50
65733;DHT22;70156;-35.366;149.082;2023-05-18T13:14:47;10.30;59.50
65733;DHT22;70156;-35.366;149.082;2023-05-18T13:17:26;10.20;59.50
65733;DHT22;70156;-35.366;149.082;2023-05-18T13:19:56;10.20;59.50
65733;DHT22;70156;-35.366;149.082;2023-05-18T13:22:23;10.20;59.60
65733;DHT22;70156;-35.366;149.082;2023-05-18T13:24:51;10.20;59.70
65733;DHT22;70156;-35.366;149.082;2023-05-18T13:27:18;10.20;59.70
65733;DHT22;70156;-35.366;149.082;2023-05-18T13:29:45;10.20;59.70
65733;DHT22;70156;-35.366;149.082;2023-05-18T13:32:32;10.20;59.70
65733;DHT22;70156;-35.366;149.082;2023-05-18T13:35:23;10.20;59.60
65733;DHT22;70156;-35.366;149.082;2023-05-18T13:37:50;10.10;59.80
65733;DHT22;70156;-35.366;149.082;2023-05-18T13:40:19;10.10;59.70
65733;DHT22;70156;-35.366;149.082;2023-05-18T13:42:47;10.10;59.90
65733;DHT22;70156;-35.366;149.082;2023-05-18T13:45:14;10.10;59.90
65733;DHT22;70156;-35.366;149.082;2023-05-18T13:47:41;10.10;59.90
65733;DHT22;70156;-35.366;149.082;2023-05-18T13:50:11;10.10;59.90
65733;DHT22;70156;-35.366;149.082;2023-05-18T13:52:38;10.10;59.90
65733;DHT22;70156;-35.366;149.082;2023-05-18T13:55:05;10.10;59.90
65733;DHT22;70156;-35.366;149.082;2023-05-18T13:57:33;10.00;59.90
65733;DHT22;70156;-35.366;149.082;2023-05-18T14:00:01;10.00;60.00
65733;DHT22;70156;-35.366;149.082;2023-05-18T14:02:35;10.00;60.10
65733;DHT22;70156;-35.366;149.082;2023-05-18T14:05:03;10.00;60.00
65733;DHT22;70156;-35.366;149.082;2023-05-18T14:07:30;10.00;60.00
65733;DHT22;70156;-35.366;149.082;2023-05-18T14:09:57;10.00;60.00
65733;DHT22;70156;-35.366;149.082;2023-05-18T14:12:24;9.90;59.90
65733;DHT22;70156;-35.366;149.082;2023-05-18T14:14:51;9.90;59.90
65733;DHT22;70156;-35.366;149.082;2023-05-18T14:17:18;9.90;59.90
65733;DHT22;70156;-35.366;149.082;2023-05-18T14:19:45;9.90;60.00
65733;DHT22;70156;-35.366;149.082;2023-05-18T14:22:12;9.90;60.10
65733;DHT22;70156;-35.366;149.082;2023-05-18T14:24:41;9.80;60.00
65733;DHT22;70156;-35.366;149.082;2023-05-18T14:27:09;9.80;60.00
65733;DHT22;70156;-35.366;149.082;2023-05-18T14:29:36;9.80;60.10
65733;DHT22;70156;-35.366;149.082;2023-05-18T14:32:03;9.80;60.10
65733;DHT22;70156;-35.366;149.082;2023-05-18T14:34:30;9.80;60.00
65733;DHT22;70156;-35.366;149.082;2023-05-18T14:36:57;9.80;60.00
65733;DHT22;70156;-35.366;149.082;2023-05-18T14:39:24;9.80;60.00
65733;DHT22;70156;-35.366;149.082;2023-05-18T14:41:51;9.80;60.00
65733;DHT22;70156;-35.366;149.082;2023-05-18T14:44:18;9.70;60.00
65733;DHT22;70156;-35.366;149.082;2023-05-18T14:46:45;9.70;60.00
65733;DHT22;70156;-35.366;149.082;2023-05-18T14:49:12;9.70;60.10
65733;DHT22;70156;-35.366;149.082;2023-05-18T14:51:39;9.70;60.10
65733;DHT22;70156;-35.366;149.082;2023-05-18T14:54:06;9.70;60.10
65733;DHT22;70156;-35.366;149.082;2023-05-18T14:56:33;9.60;60.10
65733;DHT22;70156;-35.366;149.082;2023-05-18T14:59:01;9.60;60.10
65733;DHT22;70156;-35.366;149.082;2023-05-18T15:01:28;9.60;60.20
65733;DHT22;70156;-35.366;149.082;2023-05-18T15:03:55;9.60;60.20
65733;DHT22;70156;-35.366;149.082;2023-05-18T15:06:23;9.60;60.30
65733;DHT22;70156;-35.366;149.082;2023-05-18T15:08:51;9.60;60.40
65733;DHT22;70156;-35.366;149.082;2023-05-18T15:11:18;9.60;60.40
65733;DHT22;70156;-35.366;149.082;2023-05-18T15:13:45;9.60;60.50
65733;DHT22;70156;-35.366;149.082;2023-05-18T15:16:13;9.60;60.50
65733;DHT22;70156;-35.366;149.082;2023-05-18T15:18:41;9.50;60.60
65733;DHT22;70156;-35.366;149.082;2023-05-18T15:21:09;9.50;60.60
65733;DHT22;70156;-35.366;149.082;2023-05-18T15:23:36;9.50;60.60
65733;DHT22;70156;-35.366;149.082;2023-05-18T15:26:03;9.50;60.60
65733;DHT22;70156;-35.366;149.082;2023-05-18T15:28:30;9.50;60.60
65733;DHT22;70156;-35.366;149.082;2023-05-18T15:30:57;9.50;60.70
65733;DHT22;70156;-35.366;149.082;2023-05-18T15:33:24;9.50;60.70
65733;DHT22;70156;-35.366;149.082;2023-05-18T15:35:51;9.50;60.70
65733;DHT22;70156;-35.366;149.082;2023-05-18T15:38:18;9.50;60.80
65733;DHT22;70156;-35.366;149.082;2023-05-18T15:40:45;9.40;60.70
65733;DHT22;70156;-35.366;149.082;2023-05-18T15:43:13;9.40;60.70
65733;DHT22;70156;-35.366;149.082;2023-05-18T15:45:40;9.40;60.70
65733;DHT22;70156;-35.366;149.082;2023-05-18T15:48:07;9.40;60.70
65733;DHT22;70156;-35.366;149.082;2023-05-18T15:50:34;9.40;60.70
65733;DHT22;70156;-35.366;149.082;2023-05-18T15:53:01;9.40;60.70
65733;DHT22;70156;-35.366;149.082;2023-05-18T15:55:28;9.40;60.70
65733;DHT22;70156;-35.366;149.082;2023-05-18T15:57:55;9.40;60.70
65733;DHT22;70156;-35.366;149.082;2023-05-18T16:00:22;9.40;60.70